Time;durP1;ratioP1;P1;durP2;ratioP2;P2;SDS_P1;SDS_P2;PMS_P1;PMS_P2;Temp;Humidity;BMP_temperature;BMP_pressure;BME280_temperature;BME280_humidity;BME280_pressure;Samples;Min_cycle;Max_cycle;Signal;HPM_P1;HPM_P2
2021/07/26 00:00:50;;;;;;;13.07;9.18;;;;;;;20.09;89.14;100856.22;4811470;29;20058;-36
2021/07/26 00:03:17;;;;;;;13.88;9.57;;;;;;;20.09;89.11;100861.53;4788339;29;20070;-36
2021/07/26 00:05:55;;;;;;;12.73;9.00;;;;;;;20.04;89.53;100847.22;4795431;29;20082;-36
2021/07/26 00:08:33;;;;;;;17.45;9.43;;;;;;;20.01;88.96;100845.75;4790267;29;20128;-35
2021/07/26 00:11:04;;;;;;;13.55;8.75;;;;;;;19.97;89.12;100843.72;4800950;29;20066;-35
2021/07/26 00:13:32;;;;;;;13.15;9.20;;;;;;;19.98;89.70;100845.38;4791519;29;20122;-35
2021/07/26 00:15:59;;;;;;;13.68;9.10;;;;;;;19.95;89.95;100844.78;4794591;29;20085;-35
2021/07/26 00:18:27;;;;;;;12.75;9.13;;;;;;;19.94;89.36;100839.66;4789729;29;20115;-36
2021/07/26 00:20:54;;;;;;;13.82;8.93;;;;;;;19.91;89.02;100846.19;4796052;29;20130;-35
2021/07/26 00:23:21;;;;;;;15.68;8.93;;;;;;;19.84;89.00;100836.59;4795649;29;20074;-35
2021/07/26 00:25:48;;;;;;;11.35;9.20;;;;;;;19.75;89.82;100838.66;4793061;29;20109;-35
2021/07/26 00:28:15;;;;;;;14.93;9.43;;;;;;;19.68;89.83;100838.63;4794788;29;20745;-36
2021/07/26 00:30:41;;;;;;;12.40;9.40;;;;;;;19.62;90.11;100834.13;4784962;29;20150;-37
2021/07/26 00:34:05;;;;;;;15.82;9.73;;;;;;;19.62;90.54;100833.28;4798109;29;20145;-36
2021/07/26 00:36:31;;;;;;;13.18;9.52;;;;;;;19.51;90.68;100824.91;4787501;29;20050;-36
2021/07/26 00:38:58;;;;;;;13.75;9.82;;;;;;;19.51;91.23;100821.44;4798011;29;20161;-36
2021/07/26 00:41:24;;;;;;;15.80;9.80;;;;;;;19.51;91.44;100824.91;4791178;29;20141;-36
2021/07/26 00:43:51;;;;;;;16.83;10.52;;;;;;;19.52;91.77;100831.88;4799298;29;20141;-36
2021/07/26 00:46:17;;;;;;;15.10;9.80;;;;;;;19.54;90.85;100826.34;4805304;29;20153;-36
2021/07/26 00:48:45;;;;;;;17.63;10.30;;;;;;;19.51;91.10;100834.75;4793326;29;20487;-36
2021/07/26 00:51:11;;;;;;;14.48;10.40;;;;;;;19.51;90.88;100824.09;4805082;29;20089;-36
2021/07/26 00:53:39;;;;;;;15.35;10.93;;;;;;;19.47;90.33;100821.03;4799050;29;20488;-36
2021/07/26 00:56:06;;;;;;;15.70;10.07;;;;;;;19.41;90.40;100824.53;4787297;29;20054;-36
2021/07/26 00:58:34;;;;;;;16.33;9.32;;;;;;;19.40;90.48;100827.38;4790810;29;20154;-36
2021/07/26 01:01:01;;;;;;;15.63;9.68;;;;;;;19.36;89.90;100816.31;4800676;29;20058;-36
2021/07/26 01:03:28;;;;;;;14.60;9.82;;;;;;;19.33;90.18;100824.72;4800641;29;20150;-36
2021/07/26 01:05:55;;;;;;;13.43;9.52;;;;;;;19.36;90.76;100824.31;4799450;29;20579;-36
2021/07/26 01:08:21;;;;;;;14.23;9.50;;;;;;;19.32;90.44;100825.72;4795879;29;20090;-36
2021/07/26 01:10:48;;;;;;;12.90;8.80;;;;;;;19.34;90.46;100832.47;4793450;29;20805;-36
2021/07/26 01:13:14;;;;;;;14.50;9.52;;;;;;;19.38;90.09;100829.41;4804294;29;20061;-36
2021/07/26 01:15:41;;;;;;;12.77;9.10;;;;;;;19.36;90.32;100821.63;4799320;29;20396;-36
2021/07/26 01:18:31;;;;;;;12.07;8.77;;;;;;;19.33;89.27;100822.06;4801718;29;20082;-36
2021/07/26 01:21:17;;;;;;;13.95;9.60;;;;;;;19.28;90.06;100827.16;4790472;29;20101;-36
2021/07/26 01:23:47;;;;;;;16.38;9.88;;;;;;;19.24;89.48;100829.41;4792397;29;20722;-36
2021/07/26 01:26:21;;;;;;;11.85;8.90;;;;;;;19.19;89.56;100829.22;4805042;29;20149;-36
2021/07/26 01:28:51;;;;;;;14.45;9.85;;;;;;;19.14;89.79;100832.47;4792143;29;20083;-36
2021/07/26 01:31:18;;;;;;;13.98;9.75;;;;;;;19.11;89.88;100832.88;4791323;29;20199;-36
2021/07/26 01:33:46;;;;;;;16.27;9.77;;;;;;;19.09;89.65;100828.78;4790754;29;20145;-36
2021/07/26 01:36:13;;;;;;;15.82;8.75;;;;;;;19.09;89.49;100828.78;4797595;29;20061;-36
2021/07/26 01:38:41;;;;;;;13.50;9.60;;;;;;;19.05;90.09;100833.69;4793479;29;20051;-36
2021/07/26 01:41:08;;;;;;;11.95;9.43;;;;;;;19.04;90.15;100839.22;4798180;29;20058;-36
2021/07/26 01:43:39;;;;;;;12.70;9.40;;;;;;;19.05;90.38;100836.34;4793490;29;20171;-36
2021/07/26 01:46:18;;;;;;;16.08;10.18;;;;;;;19.06;90.67;100840.63;4812629;29;20094;-36
2021/07/26 01:49:33;;;;;;;14.43;10.02;;;;;;;19.03;89.99;100841.03;4792711;29;20117;-36
2021/07/26 01:51:59;;;;;;;14.40;10.13;;;;;;;19.02;89.89;100838.59;4799973;29;20423;-36
2021/07/26 01:54:28;;;;;;;16.17;9.25;;;;;;;18.96;89.58;100843.69;4792999;29;20391;-36
2021/07/26 01:56:56;;;;;;;14.00;8.18;;;;;;;18.95;89.60;100847.38;4801747;29;20149;-36
2021/07/26 01:59:23;;;;;;;15.20;8.85;;;;;;;18.93;89.61;100841.44;4797898;29;20137;-36
2021/07/26 02:01:49;;;;;;;11.40;9.30;;;;;;;18.93;89.33;100848.56;4791423;29;20479;-36
2021/07/26 02:04:16;;;;;;;15.00;10.32;;;;;;;18.89;90.44;100836.72;4801072;29;20059;-36
2021/07/26 02:06:42;;;;;;;17.40;10.48;;;;;;;18.96;89.83;100837.56;4795609;29;20467;-36
2021/07/26 02:09:09;;;;;;;11.95;9.27;;;;;;;18.93;89.93;100837.94;4800925;29;20526;-36
2021/07/26 02:11:35;;;;;;;13.27;9.30;;;;;;;18.94;89.54;100834.28;4796690;29;20141;-36
2021/07/26 02:14:09;;;;;;;15.30;9.23;;;;;;;18.95;89.02;100847.38;4797228;29;20115;-36
2021/07/26 02:16:36;;;;;;;12.88;9.82;;;;;;;19.00;89.03;100845.94;4798660;29;20070;-36
2021/07/26 02:19:04;;;;;;;14.53;9.57;;;;;;;19.00;88.82;100853.94;4795099;29;20571;-36
2021/07/26 02:21:31;;;;;;;17.00;10.30;;;;;;;19.00;88.81;100846.75;4800026;29;20097;-36
2021/07/26 02:23:57;;;;;;;13.05;9.85;;;;;;;19.02;88.24;100857.22;4795163;29;20083;-36
2021/07/26 02:26:24;;;;;;;12.18;9.75;;;;;;;19.04;88.69;100858.63;4799724;29;20141;-36
2021/07/26 02:28:50;;;;;;;13.48;9.55;;;;;;;19.04;88.62;100863.13;4790067;29;20086;-36
2021/07/26 02:31:18;;;;;;;13.68;9.85;;;;;;;19.06;87.75;100863.75;4797597;29;20055;-36
2021/07/26 02:33:44;;;;;;;18.98;9.45;;;;;;;19.07;87.48;100862.72;4792751;29;20479;-36
2021/07/26 02:36:11;;;;;;;15.90;9.98;;;;;;;19.07;87.95;100854.75;4793039;29;20158;-36
2021/07/26 02:38:37;;;;;;;14.63;9.73;;;;;;;19.07;87.82;100860.06;4800874;29;20104;-36
2021/07/26 02:41:15;;;;;;;15.82;10.43;;;;;;;19.04;87.86;100857.81;4781370;29;20158;-36
2021/07/26 02:43:42;;;;;;;15.43;10.25;;;;;;;19.03;87.64;100859.63;4795687;29;20483;-36
2021/07/26 02:46:10;;;;;;;15.18;10.57;;;;;;;19.01;87.62;100859.03;4794590;29;20061;-36
2021/07/26 02:48:37;;;;;;;15.88;10.20;;;;;;;19.04;87.72;100847.19;4799322;29;20094;-36
2021/07/26 02:51:04;;;;;;;13.60;9.77;;;;;;;19.02;86.97;100850.03;4794570;29;21063;-36
2021/07/26 02:53:31;;;;;;;16.23;10.30;;;;;;;19.01;86.96;100852.88;4797905;29;20190;-36
2021/07/26 02:55:57;;;;;;;12.07;9.68;;;;;;;19.00;87.55;100853.94;4794005;29;20130;-36
2021/07/26 02:58:24;;;;;;;14.63;10.02;;;;;;;18.99;86.98;100866.38;4794423;29;20145;-36
2021/07/26 03:00:51;;;;;;;13.68;10.25;;;;;;;18.95;86.77;100858.00;4797384;29;20142;-36
2021/07/26 03:03:17;;;;;;;18.30;11.05;;;;;;;18.95;87.46;100855.34;4793104;29;20069;-36
2021/07/26 03:05:44;;;;;;;12.93;9.73;;;;;;;18.92;87.26;100853.09;4796466;29;20086;-36
2021/07/26 03:08:11;;;;;;;17.10;10.27;;;;;;;18.93;87.40;100857.41;4789573;29;20063;-36
2021/07/26 03:10:37;;;;;;;16.60;10.15;;;;;;;18.93;87.43;100856.56;4793794;29;20497;-36
2021/07/26 03:13:04;;;;;;;15.35;10.38;;;;;;;18.91;87.71;100863.91;4797962;29;20198;-36
2021/07/26 03:15:30;;;;;;;18.10;9.80;;;;;;;18.94;86.83;100867.00;4792873;29;20146;-36
2021/07/26 03:17:57;;;;;;;18.42;10.30;;;;;;;18.92;86.53;100868.22;4799437;29;20054;-36
2021/07/26 03:20:23;;;;;;;16.45;10.60;;;;;;;18.91;86.67;100869.22;4795604;29;20578;-36
2021/07/26 03:23:01;;;;;;;16.42;10.00;;;;;;;18.94;86.69;100867.00;4791340;29;20626;-36
2021/07/26 03:25:29;;;;;;;17.67;11.05;;;;;;;18.91;87.10;100863.91;4794467;29;20094;-36
2021/07/26 03:27:56;;;;;;;18.30;10.93;;;;;;;19.01;86.44;100868.84;4798681;29;20543;-36
2021/07/26 03:30:23;;;;;;;15.98;10.18;;;;;;;19.07;85.61;100868.03;4800044;29;20077;-36
2021/07/26 03:32:49;;;;;;;14.73;10.65;;;;;;;19.10;85.23;100867.66;4793396;29;20154;-36
2021/07/26 03:35:17;;;;;;;18.65;10.35;;;;;;;19.05;85.26;100880.72;4796685;29;20061;-36
2021/07/26 03:37:44;;;;;;;16.52;10.43;;;;;;;19.01;85.62;100882.94;4789575;29;20919;-36
2021/07/26 03:40:11;;;;;;;18.42;10.38;;;;;;;19.02;85.35;100881.13;4798354;29;20557;-36
2021/07/26 03:42:40;;;;;;;13.60;9.30;;;;;;;18.93;86.17;100885.78;4793630;29;20210;-36
2021/07/26 03:45:10;;;;;;;11.73;8.75;;;;;;;19.01;85.84;100885.59;4800527;29;20161;-36
2021/07/26 03:47:38;;;;;;;14.85;9.07;;;;;;;19.09;84.74;100884.59;4803799;29;20150;-36
2021/07/26 03:50:07;;;;;;;11.55;8.85;;;;;;;19.00;85.79;100883.97;4793051;29;20151;-36
2021/07/26 03:52:45;;;;;;;17.90;9.27;;;;;;;18.98;85.11;100893.19;4807939;29;20095;-36
2021/07/26 03:55:21;;;;;;;13.57;10.20;;;;;;;19.01;86.14;100888.25;4792679;29;20209;-36
2021/07/26 03:57:49;;;;;;;17.75;9.73;;;;;;;19.01;85.16;100885.59;4806515;29;20142;-36
2021/07/26 04:00:18;;;;;;;13.35;9.10;;;;;;;18.95;85.29;100892.56;4807631;29;20062;-36
2021/07/26 04:06:00;;;;;;;12.90;7.38;;;;;;;18.98;85.11;100883.38;4792405;29;20150;-35
2021/07/26 04:08:32;;;;;;;11.35;7.82;;;;;;;19.04;85.28;100881.75;4798759;29;20062;-35
2021/07/26 04:11:10;;;;;;;10.30;7.22;;;;;;;19.10;86.22;100889.72;4791644;29;20097;-35
2021/07/26 04:13:38;;;;;;;17.05;7.70;;;;;;;19.15;86.32;100889.94;4799124;29;20146;-35
2021/07/26 04:16:05;;;;;;;;;;;;;;;19.23;85.61;100894.25;4790168;29;20090;-35
2021/07/26 04:18:31;;;;;;;16.35;7.68;;;;;;;19.24;86.04;100887.91;4795076;29;20016;-35
2021/07/26 04:20:59;;;;;;;12.60;8.35;;;;;;;19.22;85.91;100897.13;4798732;29;20142;-35
2021/07/26 04:23:25;;;;;;;9.23;6.55;;;;;;;19.20;84.87;100897.31;4791361;29;20150;-35
2021/07/26 04:25:52;;;;;;;15.32;7.70;;;;;;;19.15;85.20;100894.44;4798544;29;20141;-36
2021/07/26 04:28:19;;;;;;;11.45;7.40;;;;;;;19.20;85.50;100893.84;4792784;29;20090;-35
2021/07/26 04:30:45;;;;;;;15.63;7.95;;;;;;;19.24;86.38;100893.22;4803121;29;20141;-35
2021/07/26 04:33:11;;;;;;;10.77;7.72;;;;;;;19.25;85.54;100897.53;4804749;29;20098;-35
2021/07/26 04:35:38;;;;;;;11.80;7.40;;;;;;;19.23;85.89;100896.94;4802708;29;20127;-35
2021/07/26 04:38:04;;;;;;;12.35;6.97;;;;;;;19.24;85.83;100906.53;4797066;29;20072;-35
2021/07/26 04:40:31;;;;;;;11.50;6.40;;;;;;;19.28;84.50;100898.97;4792666;29;20491;-35
2021/07/26 04:42:57;;;;;;;12.52;7.57;;;;;;;19.29;85.29;100900.63;4794768;29;20141;-36
2021/07/26 04:45:24;;;;;;;13.65;7.13;;;;;;;19.31;85.05;100902.03;4789773;29;20086;-35
2021/07/26 04:47:50;;;;;;;12.95;7.13;;;;;;;19.31;85.14;100903.91;4799266;29;20116;-35
2021/07/26 04:50:17;;;;;;;11.75;6.80;;;;;;;19.35;84.80;100905.13;4793067;29;20543;-35
2021/07/26 04:52:44;;;;;;;9.77;6.53;;;;;;;19.34;84.06;100906.13;4798547;29;20515;-35
2021/07/26 04:55:10;;;;;;;11.23;6.38;;;;;;;19.24;84.27;100903.88;4804423;29;20059;-35
2021/07/26 04:57:37;;;;;;;10.30;7.18;;;;;;;19.36;85.48;100907.56;4789353;29;20468;-35
2021/07/26 05:00:04;;;;;;;13.70;7.40;;;;;;;19.46;85.07;100906.34;4795004;29;20578;-36
2021/07/26 05:02:31;;;;;;;11.80;6.55;;;;;;;19.40;84.19;100910.63;4791009;29;20058;-36
2021/07/26 05:04:57;;;;;;;15.75;7.70;;;;;;;19.44;84.57;100911.88;4798582;29;20134;-35
2021/07/26 05:07:24;;;;;;;17.10;6.80;;;;;;;19.42;84.24;100908.59;4793313;29;20218;-35
2021/07/26 05:09:50;;;;;;;10.27;6.55;;;;;;;19.51;84.15;100911.91;4795721;29;20537;-35
2021/07/26 05:12:16;;;;;;;10.35;5.68;;;;;;;19.50;84.03;100908.44;4796947;29;20055;-37
2021/07/26 05:14:47;;;;;;;10.75;6.88;;;;;;;19.53;84.15;100909.84;4797165;29;20058;-37
2021/07/26 05:17:18;;;;;;;9.88;4.90;;;;;;;19.59;81.82;100911.69;4803156;29;20090;-35
2021/07/26 05:19:44;;;;;;;9.82;6.28;;;;;;;19.55;83.54;100907.81;4800984;29;20061;-35
2021/07/26 05:22:11;;;;;;;11.90;7.10;;;;;;;19.52;83.24;100906.38;4800003;29;20093;-35
2021/07/26 05:24:37;;;;;;;10.93;6.90;;;;;;;19.54;83.74;100907.00;4788462;29;20057;-35
2021/07/26 05:27:07;;;;;;;11.57;6.88;;;;;;;19.50;84.04;100905.75;4800118;29;20422;-35
2021/07/26 05:29:33;;;;;;;12.15;6.75;;;;;;;19.53;84.55;100900.03;4795388;29;20055;-35
2021/07/26 05:32:00;;;;;;;9.85;6.85;;;;;;;19.45;84.51;100899.41;4805937;29;20055;-35
2021/07/26 05:34:27;;;;;;;10.88;6.82;;;;;;;19.44;84.83;100901.22;4804646;29;20090;-35
2021/07/26 05:36:54;;;;;;;10.95;7.00;;;;;;;19.59;84.58;100901.06;4802565;29;20121;-37
2021/07/26 05:39:23;;;;;;;11.27;6.70;;;;;;;19.74;83.84;100904.38;4798950;29;20170;-35
2021/07/26 05:41:57;;;;;;;10.48;7.65;;;;;;;19.71;84.17;100902.09;4804019;29;20051;-35
2021/07/26 05:44:23;;;;;;;12.70;7.28;;;;;;;19.55;84.37;100905.16;4800781;29;20105;-35
2021/07/26 05:46:50;;;;;;;10.50;6.57;;;;;;;19.54;84.69;100903.50;4792856;29;20153;-35
2021/07/26 05:49:17;;;;;;;13.43;6.53;;;;;;;19.44;85.04;100906.56;4799577;29;20134;-36
2021/07/26 05:51:43;;;;;;;13.18;8.18;;;;;;;19.38;86.41;100899.38;4802049;29;20082;-36
2021/07/26 05:54:10;;;;;;;10.52;6.65;;;;;;;19.45;85.82;100902.06;4797857;29;20784;-36
2021/07/26 05:56:44;;;;;;;11.50;7.13;;;;;;;19.52;86.26;100900.22;4807463;29;20089;-36
2021/07/26 05:59:10;;;;;;;12.07;7.82;;;;;;;19.61;86.15;100904.31;4799101;29;20062;-35
2021/07/26 06:01:49;;;;;;;11.18;7.70;;;;;;;19.60;85.44;100900.03;4806849;29;20482;-35
2021/07/26 06:04:21;;;;;;;14.52;7.68;;;;;;;19.70;85.89;100889.00;4796271;29;20082;-35
2021/07/26 06:06:50;;;;;;;14.20;7.28;;;;;;;19.86;84.47;100896.59;4805254;29;20141;-35
2021/07/26 06:09:17;;;;;;;12.18;7.47;;;;;;;19.93;84.68;100899.22;4803660;29;20574;-35
2021/07/26 06:11:45;;;;;;;12.57;7.30;;;;;;;19.91;84.19;100901.28;4791886;29;20083;-36
2021/07/26 06:14:12;;;;;;;10.93;8.13;;;;;;;19.84;84.61;100903.97;4787641;29;20059;-36
2021/07/26 06:16:47;;;;;;;14.68;7.90;;;;;;;20.07;84.27;100900.03;4780969;29;20896;-36
2021/07/26 06:19:15;;;;;;;11.57;7.53;;;;;;;19.65;86.24;100892.25;4784788;29;20465;-36
2021/07/26 06:21:54;;;;;;;12.35;7.20;;;;;;;19.46;86.39;100901.03;4783596;29;20154;-36
2021/07/26 06:24:22;;;;;;;14.15;7.07;;;;;;;19.44;87.93;100903.88;4799558;29;20469;-35
2021/07/26 06:26:50;;;;;;;12.82;7.50;;;;;;;19.61;86.74;100901.66;4794747;29;20072;-35
2021/07/26 06:29:16;;;;;;;10.82;7.70;;;;;;;19.65;85.84;100907.41;4809411;29;20058;-36
2021/07/26 06:31:43;;;;;;;8.80;6.25;;;;;;;19.55;87.47;100916.59;4778054;29;20160;-36
2021/07/26 06:34:10;;;;;;;12.50;7.43;;;;;;;19.48;86.63;100905.16;4783412;29;20121;-35
2021/07/26 06:36:37;;;;;;;13.55;7.18;;;;;;;19.81;86.14;100907.00;4798634;29;20093;-36
2021/07/26 06:39:04;;;;;;;9.43;6.60;;;;;;;19.88;84.48;100907.03;4793405;29;20146;-36
2021/07/26 06:41:30;;;;;;;12.27;7.65;;;;;;;19.89;83.51;100906.78;4799185;29;20147;-36
2021/07/26 06:43:57;;;;;;;11.25;7.28;;;;;;;19.95;83.81;100910.47;4791616;29;20060;-36
2021/07/26 06:46:24;;;;;;;11.32;7.50;;;;;;;19.88;83.55;100912.34;4797336;29;20090;-36
2021/07/26 06:48:51;;;;;;;12.95;7.63;;;;;;;19.86;83.81;100919.72;4802238;29;20065;-36
2021/07/26 06:51:17;;;;;;;12.35;8.30;;;;;;;19.84;83.27;100919.94;4803060;29;20055;-36
2021/07/26 06:53:44;;;;;;;14.38;8.65;;;;;;;19.96;83.47;100922.78;4803630;29;20138;-36
2021/07/26 06:56:11;;;;;;;13.57;8.63;;;;;;;20.07;83.72;100921.31;4792942;29;20094;-36
2021/07/26 06:58:39;;;;;;;13.77;8.70;;;;;;;20.03;84.48;100925.44;4796513;29;20912;-36
2021/07/26 07:01:07;;;;;;;13.02;8.98;;;;;;;19.93;84.63;100921.38;4794411;29;20063;-36
2021/07/26 07:03:34;;;;;;;14.75;8.52;;;;;;;19.77;85.70;100918.28;4812725;29;20155;-37
2021/07/26 07:06:02;;;;;;;12.15;8.50;;;;;;;19.78;86.36;100917.25;4794971;29;20541;-35
2021/07/26 07:08:29;;;;;;;;;;;;;;;19.75;85.77;100916.63;4800138;29;20145;-35
2021/07/26 07:11:03;;;;;;;14.20;8.90;;;;;;;19.75;86.72;100919.28;4796397;29;20049;-35
2021/07/26 07:13:30;;;;;;;11.27;8.73;;;;;;;19.90;85.20;100915.63;4794161;29;20846;-35
2021/07/26 07:15:56;;;;;;;12.52;9.40;;;;;;;19.72;86.95;100927.69;4802019;29;20502;-36
2021/07/26 07:18:23;;;;;;;12.90;8.25;;;;;;;19.74;84.99;100928.31;4803684;29;20098;-35
2021/07/26 07:20:49;;;;;;;13.60;9.77;;;;;;;20.07;84.41;100935.47;4803078;29;20122;-35
2021/07/26 07:23:16;;;;;;;14.77;8.95;;;;;;;19.89;84.20;100927.28;4790710;29;20149;-35
2021/07/26 07:25:42;;;;;;;11.95;9.43;;;;;;;19.87;85.02;100932.81;4797142;29;21177;-36
2021/07/26 07:28:08;;;;;;;12.95;9.68;;;;;;;20.39;84.34;100926.81;4799605;29;20090;-36
2021/07/26 07:30:35;;;;;;;14.25;9.45;;;;;;;20.63;82.16;100936.00;4800814;29;20170;-35
2021/07/26 07:33:02;;;;;;;13.55;9.07;;;;;;;20.36;83.63;100933.38;4797319;29;20142;-35
2021/07/26 07:35:29;;;;;;;9.43;7.20;;;;;;;20.59;82.29;100938.25;4793348;29;20058;-35
2021/07/26 07:37:55;;;;;;;14.95;9.52;;;;;;;20.50;80.70;100931.50;4797026;29;20054;-35
2021/07/26 07:40:23;;;;;;;12.50;9.25;;;;;;;20.50;80.24;100937.66;4784170;29;20086;-35
2021/07/26 07:42:49;;;;;;;16.02;9.35;;;;;;;20.60;81.04;100942.59;4810451;29;20116;-35
2021/07/26 07:45:16;;;;;;;13.13;9.93;;;;;;;20.74;80.05;100938.84;4795148;29;20055;-35
2021/07/26 07:47:43;;;;;;;14.88;9.45;;;;;;;20.95;80.29;100944.88;4792751;29;20531;-37
2021/07/26 07:50:12;;;;;;;18.83;10.18;;;;;;;21.01;80.07;100945.88;4788319;29;20102;-36
2021/07/26 07:52:39;;;;;;;13.57;10.32;;;;;;;21.09;80.76;100945.63;4785301;29;20151;-36
2021/07/26 07:55:08;;;;;;;13.23;9.95;;;;;;;20.99;78.77;100954.09;4787184;29;20129;-36
2021/07/26 07:57:37;;;;;;;14.15;10.82;;;;;;;20.94;78.20;100936.06;4780010;29;20134;-37
2021/07/26 08:00:06;;;;;;;14.35;9.93;;;;;;;20.95;77.44;100942.22;4789706;29;20161;-36
2021/07/26 08:02:33;;;;;;;13.13;10.30;;;;;;;20.58;79.21;100944.59;4784283;29;20134;-36
2021/07/26 08:04:59;;;;;;;13.32;9.55;;;;;;;20.46;78.99;100951.59;4800852;29;20058;-36
2021/07/26 08:07:26;;;;;;;11.82;9.50;;;;;;;20.55;80.73;100955.66;4786553;29;20505;-36
2021/07/26 08:09:52;;;;;;;15.20;10.35;;;;;;;20.82;78.13;100944.97;4805854;29;20150;-37
2021/07/26 08:12:18;;;;;;;13.35;10.25;;;;;;;21.07;77.44;100950.38;4804654;29;20058;-37
2021/07/26 08:14:46;;;;;;;13.00;9.63;;;;;;;21.05;76.55;100953.28;4794935;29;20127;-37
2021/07/26 08:17:12;;;;;;;13.80;10.40;;;;;;;21.07;76.31;100951.22;4795314;29;20146;-37
2021/07/26 08:19:39;;;;;;;13.93;9.57;;;;;;;21.37;75.53;100955.16;4776570;29;20523;-37
2021/07/26 08:22:05;;;;;;;11.93;10.10;;;;;;;21.56;75.11;100951.56;4785136;29;20162;-38
2021/07/26 08:24:32;;;;;;;14.45;8.88;;;;;;;21.67;74.70;100953.53;4801067;29;20146;-37
2021/07/26 08:26:58;;;;;;;11.85;9.27;;;;;;;21.83;74.31;100964.72;4800936;29;20469;-38
2021/07/26 08:29:24;;;;;;;10.98;9.27;;;;;;;21.83;74.15;100959.38;4795526;29;20108;-38
2021/07/26 08:31:51;;;;;;;12.57;9.23;;;;;;;21.84;72.90;100959.16;4784006;29;20134;-37
2021/07/26 08:34:17;;;;;;;12.00;8.32;;;;;;;21.98;73.65;100967.06;4793531;29;20085;-38
2021/07/26 08:36:44;;;;;;;10.40;8.25;;;;;;;21.97;71.69;100966.22;4798760;29;20042;-37
2021/07/26 08:39:10;;;;;;;12.18;8.35;;;;;;;22.08;72.56;100976.22;4804445;29;20140;-37
2021/07/26 08:41:37;;;;;;;12.18;8.63;;;;;;;22.26;72.54;100974.66;4803630;29;20528;-37
2021/07/26 08:44:05;;;;;;;10.93;7.95;;;;;;;22.29;71.96;100972.34;4784687;29;20764;-37
2021/07/26 08:46:32;;;;;;;13.32;8.68;;;;;;;22.47;71.66;100974.22;4785244;29;20104;-37
2021/07/26 08:49:00;;;;;;;9.20;7.87;;;;;;;22.52;71.22;100970.88;4787768;29;20081;-37
2021/07/26 08:51:27;;;;;;;10.67;7.93;;;;;;;22.36;71.51;100976.81;4800173;29;20384;-37
2021/07/26 08:53:55;;;;;;;9.65;7.03;;;;;;;22.31;71.51;100982.81;4796750;29;20140;-37
2021/07/26 08:56:21;;;;;;;11.38;7.18;;;;;;;22.08;72.26;100981.56;4794000;29;20145;-37
2021/07/26 08:58:49;;;;;;;;;;;;;;;22.47;70.39;100979.56;4786266;29;20933;-37
2021/07/26 09:01:17;;;;;;;9.70;7.40;;;;;;;22.66;69.88;100974.25;4790546;29;20464;-37
2021/07/26 09:03:44;;;;;;;;;;;;;;;22.93;69.41;100965.91;4794084;29;20504;-37
2021/07/26 09:06:11;;;;;;;10.43;7.00;;;;;;;22.73;68.57;100974.97;4789062;29;19930;-37
2021/07/26 09:08:38;;;;;;;8.90;6.95;;;;;;;22.73;66.92;100972.28;4798910;29;20102;-37
2021/07/26 09:11:05;;;;;;;7.70;6.40;;;;;;;22.79;67.80;100971.41;4798769;29;20047;-37
2021/07/26 09:13:39;;;;;;;11.17;6.63;;;;;;;22.65;68.48;100978.75;4792684;29;20153;-37
2021/07/26 09:16:20;;;;;;;9.00;6.70;;;;;;;22.64;69.01;100971.78;4796060;29;20295;-38
2021/07/26 09:19:00;;;;;;;10.77;5.03;;;;;;;22.59;70.11;100971.63;4808215;29;20062;-38
2021/07/26 09:21:47;;;;;;;8.52;5.40;;;;;;;22.80;69.27;100970.38;4791739;29;20142;-38
2021/07/26 09:24:14;;;;;;;;;;;;;;;23.06;67.17;100971.94;4797940;29;20097;-35
2021/07/26 09:26:43;;;;;;;9.05;6.75;;;;;;;23.27;67.68;100959.13;4794241;29;20032;-37
2021/07/26 09:29:26;;;;;;;6.80;4.95;;;;;;;23.52;64.99;100968.84;4789137;29;20066;-38
2021/07/26 09:32:02;;;;;;;9.38;5.43;;;;;;;23.85;64.47;100961.13;4798763;29;20513;-38
2021/07/26 09:34:29;;;;;;;6.70;5.18;;;;;;;24.04;62.00;100961.03;4791927;29;20067;-38
2021/07/26 09:36:56;;;;;;;6.72;5.07;;;;;;;24.51;61.68;100960.22;4803697;29;20523;-38
2021/07/26 09:39:28;;;;;;;5.72;4.28;;;;;;;24.76;60.30;100959.94;4797905;29;20137;-38
2021/07/26 09:42:01;;;;;;;6.53;4.20;;;;;;;24.59;60.69;100957.97;4801122;29;20181;-35
2021/07/26 09:44:29;;;;;;;7.07;4.43;;;;;;;24.46;59.79;100955.53;4802653;29;20431;-37
2021/07/26 09:47:17;;;;;;;6.13;4.20;;;;;;;24.53;59.85;100960.81;4805179;29;20120;-38
2021/07/26 09:49:44;;;;;;;6.28;4.75;;;;;;;24.23;60.02;100962.56;4788783;29;20058;-38
2021/07/26 09:52:11;;;;;;;8.43;4.45;;;;;;;24.13;60.38;100966.84;4800438;29;20157;-38
2021/07/26 09:54:43;;;;;;;7.63;4.00;;;;;;;24.01;59.46;100973.03;4788910;29;20421;-38
2021/07/26 09:57:18;;;;;;;5.63;4.05;;;;;;;23.95;61.14;100963.22;4804794;29;20109;-38
2021/07/26 09:59:46;;;;;;;6.13;3.75;;;;;;;24.46;61.29;100959.03;4791091;29;20090;-38
2021/07/26 10:02:14;;;;;;;5.32;4.00;;;;;;;24.55;58.53;100956.03;4792679;29;20153;-38
2021/07/26 10:04:44;;;;;;;6.93;4.13;;;;;;;24.59;59.79;100967.91;4802628;29;20146;-38
2021/07/26 10:07:12;;;;;;;7.82;3.75;;;;;;;24.89;59.03;100973.06;4797677;29;20058;-39
2021/07/26 10:09:46;;;;;;;5.28;3.95;;;;;;;24.80;55.96;100969.94;4794564;29;20118;-39
2021/07/26 10:12:20;;;;;;;6.75;4.82;;;;;;;25.20;57.02;100981.72;4791545;29;20055;-38
2021/07/26 10:14:49;;;;;;;4.97;3.63;;;;;;;25.23;56.61;100967.84;4799206;29;20062;-37
2021/07/26 10:17:16;;;;;;;6.32;4.70;;;;;;;25.26;57.30;100965.47;4800031;29;20635;-38
2021/07/26 10:19:42;;;;;;;7.37;4.33;;;;;;;25.22;56.48;100971.56;4794586;29;20086;-37
2021/07/26 10:22:13;;;;;;;9.20;5.32;;;;;;;25.01;55.75;100975.69;4795816;29;20406;-37
2021/07/26 10:24:46;;;;;;;5.72;4.20;;;;;;;25.17;56.16;100966.06;4790814;29;20145;-37
2021/07/26 10:27:18;;;;;;;6.30;4.25;;;;;;;25.30;56.17;100968.50;4798005;29;20096;-37
2021/07/26 10:29:52;;;;;;;10.63;4.78;;;;;;;25.23;56.25;100970.53;4800397;29;20145;-37
2021/07/26 10:32:30;;;;;;;6.85;4.68;;;;;;;25.17;57.01;100969.59;4803400;29;20495;-38
2021/07/26 10:34:57;;;;;;;8.52;5.10;;;;;;;25.03;57.32;100977.13;4791402;29;20179;-38
2021/07/26 10:37:39;;;;;;;7.75;5.32;;;;;;;25.01;58.52;100964.97;4797524;29;20128;-38
2021/07/26 10:40:27;;;;;;;9.30;5.60;;;;;;;24.78;57.98;100971.25;4794896;29;20600;-38
2021/07/26 10:43:00;;;;;;;7.32;4.50;;;;;;;24.78;58.10;100966.69;4800451;29;20050;-38
2021/07/26 10:45:33;;;;;;;8.25;4.57;;;;;;;24.79;57.40;100970.19;4795445;29;20094;-37
2021/07/26 10:48:21;;;;;;;5.63;4.40;;;;;;;24.64;57.35;100971.50;4797613;29;20413;-38
2021/07/26 10:50:49;;;;;;;5.85;4.70;;;;;;;24.46;56.83;100966.25;4807554;29;20711;-38
2021/07/26 10:53:34;;;;;;;7.03;4.45;;;;;;;24.52;57.88;100978.75;4805163;29;20078;-37
2021/07/26 10:56:08;;;;;;;6.05;4.35;;;;;;;24.85;57.20;100971.91;4800583;29;20086;-37
2021/07/26 10:58:38;;;;;;;6.80;4.40;;;;;;;24.82;56.28;100975.88;4790467;29;20823;-37
2021/07/26 11:01:20;;;;;;;9.23;4.72;;;;;;;25.02;57.89;100971.97;4802015;29;20158;-37
2021/07/26 11:03:51;;;;;;;6.22;4.30;;;;;;;24.93;56.98;100976.09;4790989;29;20503;-37
2021/07/26 11:06:36;;;;;;;6.00;3.85;;;;;;;25.01;56.67;100973.84;4799925;29;20063;-37
2021/07/26 11:09:20;;;;;;;6.55;3.90;;;;;;;25.08;56.32;100965.66;4794024;29;20066;-37
2021/07/26 11:11:52;;;;;;;5.30;3.63;;;;;;;24.96;56.29;100975.63;4799991;29;20055;-38
2021/07/26 11:14:19;;;;;;;6.20;3.75;;;;;;;24.62;56.35;100970.09;4800244;29;20083;-37
2021/07/26 11:16:56;;;;;;;9.02;3.03;;;;;;;24.63;56.94;100971.75;4801419;29;20068;-37
2021/07/26 11:19:54;;;;;;;7.45;3.22;;;;;;;24.66;56.04;100974.75;4794486;29;20050;-38
2021/07/26 11:22:27;;;;;;;5.03;2.80;;;;;;;24.61;54.90;100973.84;4795257;29;20070;-37
2021/07/26 11:24:55;;;;;;;6.40;2.67;;;;;;;24.60;55.28;100966.84;4794791;29;20099;-37
2021/07/26 11:27:21;;;;;;;3.00;2.35;;;;;;;24.77;54.86;100964.25;4803692;29;20155;-37
2021/07/26 11:29:52;;;;;;;4.70;2.42;;;;;;;24.69;54.15;100968.09;4805018;29;20050;-37
2021/07/26 11:32:23;;;;;;;5.88;3.40;;;;;;;25.09;53.47;100961.94;4796891;29;20113;-37